Time;durP1;ratioP1;P1;durP2;ratioP2;P2;SDS_P1;SDS_P2;PMS_P1;PMS_P2;Temp;Humidity;BMP_temperature;BMP_pressure;BME280_temperature;BME280_humidity;BME280_pressure;Samples;Min_cycle;Max_cycle;Signal;HPM_P1;HPM_P2
2023/09/06 00:01:33;;;;;;;0.00;0.00;;;;;;;19.92;67.91;100531.91;4987543;28;20030;-73
2023/09/06 00:03:58;;;;;;;0.00;0.00;;;;;;;19.89;68.23;100532.56;4986576;28;20077;-73
2023/09/06 00:06:24;;;;;;;0.00;0.00;;;;;;;19.87;68.35;100534.84;4988576;28;20026;-73
2023/09/06 00:08:50;;;;;;;0.00;0.00;;;;;;;19.83;68.64;100523.59;4952406;28;20120;-74
2023/09/06 00:11:16;;;;;;;0.00;0.00;;;;;;;19.80;68.44;100531.72;4972574;28;20037;-74
2023/09/06 00:13:42;;;;;;;0.00;0.00;;;;;;;19.77;68.40;100529.56;4978457;28;20362;-73
2023/09/06 00:16:07;;;;;;;0.00;0.00;;;;;;;19.76;68.73;100522.41;4999570;28;20056;-73
2023/09/06 00:18:33;;;;;;;0.00;0.00;;;;;;;19.68;68.70;100513.75;4982882;28;20044;-73
2023/09/06 00:20:58;;;;;;;0.00;0.00;;;;;;;19.77;68.92;100524.03;4978746;28;20092;-74
2023/09/06 00:23:25;;;;;;;0.00;0.00;;;;;;;19.70;69.01;100514.25;4986246;28;20032;-74
2023/09/06 00:25:51;;;;;;;0.00;0.00;;;;;;;19.70;68.98;100518.97;4994278;28;20033;-73
2023/09/06 00:28:17;;;;;;;0.00;0.00;;;;;;;19.65;69.57;100514.38;4986136;28;20045;-74
2023/09/06 00:30:46;;;;;;;0.00;0.00;;;;;;;19.59;69.38;100510.16;4987957;28;20037;-74
2023/09/06 00:33:12;;;;;;;0.00;0.00;;;;;;;19.55;69.70;100506.38;4994672;28;20026;-74
2023/09/06 00:35:40;;;;;;;0.00;0.00;;;;;;;19.50;69.53;100512.09;5005832;28;20601;-73
2023/09/06 00:38:06;;;;;;;0.00;0.00;;;;;;;19.50;70.05;100529.56;4966568;28;20141;-73
2023/09/06 00:40:37;;;;;;;0.00;0.00;;;;;;;19.52;69.70;100530.06;4981187;28;20125;-74
2023/09/06 00:43:04;;;;;;;0.00;0.00;;;;;;;19.45;69.85;100512.25;4992827;28;20021;-73
2023/09/06 00:45:44;;;;;;;0.00;0.00;;;;;;;19.44;69.87;100521.72;4981928;28;20149;-73
2023/09/06 00:48:11;;;;;;;0.00;0.00;;;;;;;19.38;70.54;100511.91;5000977;28;20025;-72
2023/09/06 00:50:37;;;;;;;0.00;0.00;;;;;;;19.42;70.18;100518.44;4985319;28;20117;-74
2023/09/06 00:53:06;;;;;;;0.00;0.00;;;;;;;19.36;70.55;100506.69;4998789;28;20124;-75
2023/09/06 00:55:33;;;;;;;0.00;0.00;;;;;;;19.34;70.70;100520.88;4981933;28;20043;-73
2023/09/06 00:57:59;;;;;;;0.00;0.00;;;;;;;19.31;70.75;100518.75;4993883;28;20025;-73
2023/09/06 01:00:24;;;;;;;0.00;0.00;;;;;;;19.28;70.63;100522.16;4962260;28;20037;-73
2023/09/06 01:02:50;;;;;;;0.00;0.00;;;;;;;19.27;70.85;100526.06;4958331;28;20757;-74
2023/09/06 01:05:17;;;;;;;0.00;0.00;;;;;;;19.26;70.82;100532.78;4967769;28;20038;-73
2023/09/06 01:07:50;;;;;;;0.00;0.00;;;;;;;19.16;70.83;100522.00;4986685;28;20040;-72
2023/09/06 01:10:16;;;;;;;0.00;0.00;;;;;;;19.20;71.12;100522.97;4983806;28;20030;-73
2023/09/06 01:12:41;;;;;;;0.00;0.00;;;;;;;19.24;71.65;100526.72;4956737;28;20034;-73
2023/09/06 01:15:07;;;;;;;0.00;0.00;;;;;;;19.24;71.67;100528.69;4979575;28;20021;-72
2023/09/06 01:17:37;;;;;;;0.00;0.00;;;;;;;19.20;71.39;100517.41;4982112;28;20056;-72
2023/09/06 01:20:25;;;;;;;0.00;0.00;;;;;;;19.21;71.58;100521.81;5002099;28;20025;-73
2023/09/06 01:23:15;;;;;;;0.00;0.00;;;;;;;19.13;71.58;100517.09;4973443;28;20021;-74
2023/09/06 01:25:41;;;;;;;0.00;0.00;;;;;;;19.15;71.64;100531.44;4987347;28;20037;-72
2023/09/06 01:28:06;;;;;;;0.00;0.00;;;;;;;19.05;71.58;100515.09;4983292;28;20036;-73
2023/09/06 01:30:32;;;;;;;0.00;0.00;;;;;;;19.07;71.70;100513.66;4999629;28;20078;-72
2023/09/06 01:32:57;;;;;;;0.00;0.00;;;;;;;19.09;71.82;100527.19;4979364;28;20474;-72
2023/09/06 01:35:22;;;;;;;0.00;0.00;;;;;;;19.07;72.28;100530.28;4981705;28;20085;-72
2023/09/06 01:37:51;;;;;;;0.00;0.00;;;;;;;18.96;72.35;100513.09;4980485;28;21422;-71
2023/09/06 01:40:19;;;;;;;0.00;0.00;;;;;;;19.06;72.01;100533.38;4997552;28;20026;-74
2023/09/06 01:42:46;;;;;;;0.00;0.00;;;;;;;19.02;72.75;100539.53;4983377;28;20037;-73
2023/09/06 01:45:14;;;;;;;0.00;0.00;;;;;;;18.98;72.65;100546.03;4977601;28;20084;-73
2023/09/06 01:47:40;;;;;;;0.00;0.00;;;;;;;18.90;73.12;100538.53;4997821;28;20483;-72
2023/09/06 01:50:05;;;;;;;0.00;0.00;;;;;;;18.82;73.33;100546.44;4994911;28;20042;-72
2023/09/06 01:52:31;;;;;;;0.00;0.00;;;;;;;18.78;73.17;100545.44;4984557;28;20037;-73
2023/09/06 01:54:56;;;;;;;0.00;0.00;;;;;;;18.71;73.36;100544.28;4985530;28;20042;-72
2023/09/06 01:57:21;;;;;;;0.00;0.00;;;;;;;18.70;74.04;100537.91;4977662;28;20034;-72
2023/09/06 01:59:50;;;;;;;0.00;0.00;;;;;;;18.67;73.67;100527.47;4982596;28;20089;-73
2023/09/06 02:02:16;;;;;;;0.00;0.00;;;;;;;18.68;73.83;100529.09;4995238;28;20023;-73
2023/09/06 02:04:41;;;;;;;0.00;0.00;;;;;;;18.64;73.68;100523.38;4994733;28;20034;-73
2023/09/06 02:07:07;;;;;;;0.00;0.00;;;;;;;18.65;74.31;100529.75;4961579;28;21577;-73
2023/09/06 02:09:32;;;;;;;0.00;0.00;;;;;;;18.59;74.10;100515.22;4958129;28;20042;-74
2023/09/06 02:11:59;;;;;;;0.00;0.00;;;;;;;18.62;73.91;100524.84;4991800;28;20038;-74
2023/09/06 02:14:24;;;;;;;0.00;0.00;;;;;;;18.60;74.11;100527.09;4971025;28;20026;-72
2023/09/06 02:16:50;;;;;;;0.00;0.00;;;;;;;18.62;74.49;100528.41;4987245;28;20056;-73
2023/09/06 02:19:16;;;;;;;0.00;0.00;;;;;;;18.58;74.27;100519.09;4987580;28;20075;-74
2023/09/06 02:21:41;;;;;;;0.00;0.00;;;;;;;18.61;74.80;100514.88;4991254;28;20030;-73
2023/09/06 02:24:08;;;;;;;0.00;0.00;;;;;;;18.61;74.40;100524.00;4976985;28;21493;-73
2023/09/06 02:26:34;;;;;;;0.00;0.00;;;;;;;18.55;74.93;100528.06;4968614;28;20076;-73
2023/09/06 02:29:00;;;;;;;0.00;0.00;;;;;;;18.34;75.03;100507.56;4982972;28;20376;-72
2023/09/06 02:31:26;;;;;;;0.00;0.00;;;;;;;18.44;75.16;100537.75;4995501;28;20042;-74
2023/09/06 02:33:51;;;;;;;0.00;0.00;;;;;;;18.39;75.21;100540.66;4987777;28;20029;-71
2023/09/06 02:36:16;;;;;;;0.00;0.00;;;;;;;18.23;75.61;100529.16;4968045;28;20122;-72
2023/09/06 02:38:42;;;;;;;0.00;0.00;;;;;;;18.22;75.89;100542.16;4977335;28;20097;-74
2023/09/06 02:41:07;;;;;;;0.00;0.00;;;;;;;18.17;75.84;100531.25;4985593;28;20034;-73
2023/09/06 02:43:33;;;;;;;0.00;0.00;;;;;;;18.24;75.55;100547.41;4981525;28;20408;-73
2023/09/06 02:46:02;;;;;;;0.00;0.00;;;;;;;18.24;75.79;100541.88;5004100;28;20034;-72
2023/09/06 02:48:29;;;;;;;0.00;0.00;;;;;;;18.24;75.61;100542.69;4952048;28;20065;-72
2023/09/06 02:50:56;;;;;;;0.00;0.00;;;;;;;18.22;76.18;100538.59;4972058;28;20160;-73
2023/09/06 02:53:22;;;;;;;0.00;0.00;;;;;;;18.23;76.43;100541.03;4972455;28;20030;-72
2023/09/06 02:55:51;;;;;;;0.00;0.00;;;;;;;18.17;76.52;100531.25;4978257;28;20421;-72
2023/09/06 02:58:18;;;;;;;0.00;0.00;;;;;;;18.17;76.44;100536.78;4999100;28;20080;-73
2023/09/06 03:00:47;;;;;;;0.00;0.00;;;;;;;18.19;76.28;100545.56;4970373;28;20056;-72
2023/09/06 03:03:15;;;;;;;0.00;0.00;;;;;;;18.24;76.74;100547.41;4967633;28;20140;-72
2023/09/06 03:05:41;;;;;;;0.00;0.00;;;;;;;18.24;76.46;100553.75;4997296;28;20479;-72
2023/09/06 03:08:12;;;;;;;0.00;0.00;;;;;;;18.21;76.53;100548.00;4983246;28;20129;-72
2023/09/06 03:10:39;;;;;;;0.00;0.00;;;;;;;18.16;76.43;100540.66;4991039;28;20113;-72
2023/09/06 03:13:05;;;;;;;0.00;0.00;;;;;;;18.13;77.00;100555.13;4961596;28;20030;-73
2023/09/06 03:15:31;;;;;;;0.00;0.00;;;;;;;18.10;76.75;100553.00;4993384;28;20025;-72
2023/09/06 03:18:01;;;;;;;0.00;0.00;;;;;;;18.06;76.47;100546.44;4992907;28;20637;-73
2023/09/06 03:20:32;;;;;;;0.00;0.00;;;;;;;17.96;76.68;100542.81;4994977;28;20034;-71
2023/09/06 03:23:16;;;;;;;0.00;0.00;;;;;;;17.97;76.65;100543.63;4998001;28;20144;-72
2023/09/06 03:25:43;;;;;;;0.00;0.00;;;;;;;17.96;76.64;100556.63;4975360;28;20030;-73
2023/09/06 03:28:08;;;;;;;0.00;0.00;;;;;;;17.94;77.14;100558.88;4989401;28;20034;-73
2023/09/06 03:30:34;;;;;;;0.00;0.00;;;;;;;17.92;77.05;100557.56;4985463;28;20169;-73
2023/09/06 03:32:59;;;;;;;0.00;0.00;;;;;;;17.93;77.13;100560.03;4983151;28;20061;-73
2023/09/06 03:35:25;;;;;;;0.00;0.00;;;;;;;17.90;77.27;100566.19;4984221;28;20030;-73
2023/09/06 03:37:51;;;;;;;0.00;0.00;;;;;;;17.92;77.01;100563.13;4979769;28;20078;-74
2023/09/06 03:40:34;;;;;;;0.00;0.00;;;;;;;17.89;77.53;100553.44;4991330;28;20039;-73
2023/09/06 03:43:04;;;;;;;0.00;0.00;;;;;;;17.87;77.47;100555.72;4980469;28;20024;-71
2023/09/06 03:45:30;;;;;;;0.00;0.00;;;;;;;17.87;77.59;100563.19;4967901;28;20444;-74
2023/09/06 03:47:56;;;;;;;0.00;0.00;;;;;;;17.89;77.95;100558.19;4967622;28;20030;-73
2023/09/06 03:50:21;;;;;;;0.00;0.00;;;;;;;17.88;77.66;100557.34;4972921;28;20657;-73
2023/09/06 03:52:48;;;;;;;0.00;0.00;;;;;;;17.83;77.64;100557.47;4990304;28;20027;-73
2023/09/06 03:55:13;;;;;;;0.00;0.00;;;;;;;17.85;77.41;100557.97;4984074;28;20388;-73
2023/09/06 03:57:39;;;;;;;0.00;0.00;;;;;;;17.83;78.33;100560.25;4997156;28;20034;-74
2023/09/06 04:00:24;;;;;;;0.00;0.00;;;;;;;17.83;77.70;100571.31;4980972;28;20030;-72
2023/09/06 04:02:56;;;;;;;0.00;0.00;;;;;;;17.76;78.27;100563.41;4990305;28;20023;-72
2023/09/06 04:05:25;;;;;;;0.00;0.00;;;;;;;17.82;78.10;100563.31;4975638;28;20133;-74
2023/09/06 04:07:58;;;;;;;0.00;0.00;;;;;;;17.77;78.30;100567.00;5001469;28;20108;-74
2023/09/06 04:10:36;;;;;;;0.00;0.00;;;;;;;17.78;78.01;100566.72;4983912;28;20443;-74
2023/09/06 04:13:07;;;;;;;0.00;0.00;;;;;;;17.77;77.83;100570.59;5001224;28;20030;-73
2023/09/06 04:15:35;;;;;;;0.00;0.00;;;;;;;17.82;77.86;100580.72;4960783;28;20030;-72
2023/09/06 04:18:03;;;;;;;0.00;0.00;;;;;;;17.82;78.49;100577.94;4990465;28;20053;-73
2023/09/06 04:20:31;;;;;;;0.00;0.00;;;;;;;17.80;78.02;100571.94;4998283;28;20045;-74
2023/09/06 04:22:59;;;;;;;0.00;0.00;;;;;;;17.78;78.26;100569.47;4995983;28;20014;-73
2023/09/06 04:25:26;;;;;;;0.00;0.00;;;;;;;17.81;77.98;100573.53;4986195;28;20373;-74
2023/09/06 04:27:54;;;;;;;0.00;0.00;;;;;;;17.77;77.92;100567.84;4970133;28;20041;-74
2023/09/06 04:30:24;;;;;;;0.00;0.00;;;;;;;17.78;77.82;100575.00;4980844;28;20400;-74
2023/09/06 04:32:51;;;;;;;0.00;0.00;;;;;;;17.76;78.51;100576.44;4972367;28;20022;-71
2023/09/06 04:35:17;;;;;;;0.00;0.00;;;;;;;17.76;77.87;100573.69;4990631;28;20127;-72
2023/09/06 04:37:43;;;;;;;0.00;0.00;;;;;;;17.72;77.95;100564.34;4996549;28;20030;-72
2023/09/06 04:40:13;;;;;;;0.00;0.00;;;;;;;17.72;78.44;100569.88;4988898;28;20026;-73
2023/09/06 04:42:41;;;;;;;0.00;0.00;;;;;;;17.62;78.79;100571.75;4961074;28;20030;-71
2023/09/06 04:45:09;;;;;;;0.00;0.00;;;;;;;17.59;79.13;100575.13;4990684;28;20038;-72
2023/09/06 04:47:35;;;;;;;0.00;0.00;;;;;;;17.51;79.37;100575.88;4992215;28;20026;-73
2023/09/06 04:50:01;;;;;;;0.00;0.00;;;;;;;17.52;79.38;100583.03;4952813;28;20487;-72
2023/09/06 04:52:27;;;;;;;0.00;0.00;;;;;;;17.50;79.21;100576.19;4996733;28;20034;-73
2023/09/06 04:54:53;;;;;;;0.00;0.00;;;;;;;17.54;79.20;100579.97;4966590;28;20033;-74
2023/09/06 04:57:19;;;;;;;0.00;0.00;;;;;;;17.49;79.31;100578.09;4998848;28;20040;-73
2023/09/06 04:59:44;;;;;;;0.00;0.00;;;;;;;17.44;79.63;100578.22;4986374;28;20030;-72
2023/09/06 05:02:10;;;;;;;0.00;0.00;;;;;;;17.41;79.24;100581.63;4986176;28;20037;-73
2023/09/06 05:04:36;;;;;;;0.00;0.00;;;;;;;17.42;79.39;100594.28;4978813;28;20038;-74
2023/09/06 05:07:04;;;;;;;0.00;0.00;;;;;;;17.38;79.72;100587.75;4972345;28;20034;-73
2023/09/06 05:09:29;;;;;;;0.00;0.00;;;;;;;17.38;79.82;100593.28;4976934;28;20378;-73
2023/09/06 05:11:55;;;;;;;0.00;0.00;;;;;;;17.39;79.67;100600.44;4997042;28;20038;-73
2023/09/06 05:14:20;;;;;;;0.00;0.00;;;;;;;17.36;79.11;100601.06;4976553;28;20390;-73
2023/09/06 05:16:45;;;;;;;0.00;0.00;;;;;;;17.31;79.61;100596.44;4984630;28;20149;-72
2023/09/06 05:19:11;;;;;;;0.00;0.00;;;;;;;17.26;79.70;100591.84;4999084;28;20033;-73
2023/09/06 05:21:36;;;;;;;0.00;0.00;;;;;;;17.21;79.73;100594.69;4979105;28;20035;-73
2023/09/06 05:24:02;;;;;;;0.00;0.00;;;;;;;17.24;79.46;100596.03;4983204;28;20493;-72
2023/09/06 05:26:28;;;;;;;0.00;0.00;;;;;;;17.18;79.33;100600.84;4978734;28;20046;-71
2023/09/06 05:28:54;;;;;;;0.00;0.00;;;;;;;17.20;79.22;100601.38;4966197;28;20452;-72
2023/09/06 05:31:20;;;;;;;0.00;0.00;;;;;;;17.20;79.29;100603.31;4951430;28;20061;-73
2023/09/06 05:33:46;;;;;;;0.00;0.00;;;;;;;17.15;79.99;100595.94;4986802;28;20044;-72
2023/09/06 05:36:12;;;;;;;0.00;0.00;;;;;;;17.16;79.36;100600.34;4983037;28;20037;-73
2023/09/06 05:38:38;;;;;;;0.00;0.00;;;;;;;17.16;79.32;100597.56;4962003;28;20042;-74
2023/09/06 05:41:05;;;;;;;0.00;0.00;;;;;;;17.20;79.58;100600.53;4988564;28;20393;-73
2023/09/06 05:43:30;;;;;;;0.00;0.00;;;;;;;17.23;78.92;100605.44;4988982;28;20026;-74
2023/09/06 05:45:55;;;;;;;0.00;0.00;;;;;;;17.20;79.68;100604.13;4994791;28;20030;-73
2023/09/06 05:48:21;;;;;;;0.00;0.00;;;;;;;17.25;79.56;100606.78;4975329;28;20511;-73
2023/09/06 05:50:47;;;;;;;0.00;0.00;;;;;;;17.27;79.23;100601.78;4972432;28;20030;-73
2023/09/06 05:53:12;;;;;;;0.00;0.00;;;;;;;17.35;79.23;100613.25;4982962;28;20037;-73
2023/09/06 05:55:38;;;;;;;0.00;0.00;;;;;;;17.43;78.56;100623.56;4962525;28;20038;-72
2023/09/06 05:58:04;;;;;;;0.00;0.00;;;;;;;17.47;78.68;100619.06;4976005;28;20109;-72
2023/09/06 06:00:30;;;;;;;0.00;0.00;;;;;;;17.52;78.75;100626.44;4990349;28;20053;-73
2023/09/06 06:02:57;;;;;;;0.00;0.00;;;;;;;17.52;78.80;100616.22;4980471;28;20117;-72
2023/09/06 06:05:24;;;;;;;0.00;0.00;;;;;;;17.57;78.40;100618.88;4994788;28;20065;-71
2023/09/06 06:07:49;;;;;;;0.00;0.00;;;;;;;17.65;79.00;100616.50;4950748;28;20068;-73
2023/09/06 06:10:15;;;;;;;0.00;0.00;;;;;;;17.73;78.99;100624.06;4987239;28;20709;-72
2023/09/06 06:12:43;;;;;;;0.00;0.00;;;;;;;17.75;78.82;100624.56;5000140;28;20492;-72
2023/09/06 06:15:12;;;;;;;0.00;0.00;;;;;;;17.72;78.76;100614.13;4991092;28;20026;-72
2023/09/06 06:17:38;;;;;;;0.00;0.00;;;;;;;17.82;78.52;100616.69;4961067;28;20045;-75
2023/09/06 06:20:09;;;;;;;0.00;0.00;;;;;;;17.92;78.36;100619.25;4986818;28;20132;-71
2023/09/06 06:22:37;;;;;;;0.00;0.00;;;;;;;18.04;78.25;100621.47;4961328;28;20464;-72
2023/09/06 06:25:05;;;;;;;0.00;0.00;;;;;;;18.14;78.29;100625.97;4991841;28;20027;-72
2023/09/06 06:27:30;;;;;;;0.00;0.00;;;;;;;18.25;77.54;100621.81;4992877;28;20018;-72
2023/09/06 06:29:56;;;;;;;0.00;0.00;;;;;;;18.39;77.61;100618.19;4988248;28;20057;-73
2023/09/06 06:32:22;;;;;;;0.00;0.00;;;;;;;18.53;77.10;100630.03;4968771;28;20038;-74
2023/09/06 06:34:50;;;;;;;0.00;0.00;;;;;;;18.70;77.08;100639.56;4956801;28;20041;-73
2023/09/06 06:37:16;;;;;;;0.00;0.00;;;;;;;18.78;76.71;100627.75;4997045;28;20420;-74
2023/09/06 06:39:41;;;;;;;0.00;0.00;;;;;;;18.94;76.87;100636.47;4967283;28;20042;-73
2023/09/06 06:42:07;;;;;;;0.00;0.00;;;;;;;19.04;76.30;100636.22;4978460;28;20416;-72
2023/09/06 06:44:33;;;;;;;0.00;0.00;;;;;;;19.19;76.37;100632.22;4986382;28;20014;-74
2023/09/06 06:46:59;;;;;;;0.00;0.00;;;;;;;19.32;75.79;100636.84;4998000;28;20150;-72
2023/09/06 06:49:27;;;;;;;0.00;0.00;;;;;;;19.35;75.78;100618.75;4969469;28;20121;-75
2023/09/06 06:51:52;;;;;;;0.00;0.00;;;;;;;19.53;75.38;100636.25;4978804;28;20034;-76
2023/09/06 06:54:19;;;;;;;0.00;0.00;;;;;;;19.62;75.40;100642.63;4968436;28;20100;-75
2023/09/06 06:56:44;;;;;;;0.00;0.00;;;;;;;19.79;75.25;100649.41;4965625;28;20056;-72
2023/09/06 06:59:10;;;;;;;0.00;0.00;;;;;;;19.89;75.18;100646.34;4993324;28;21205;-73
2023/09/06 07:01:36;;;;;;;0.00;0.00;;;;;;;20.07;74.83;100649.13;4975931;28;20018;-73
2023/09/06 07:04:04;;;;;;;0.00;0.00;;;;;;;20.20;74.28;100650.94;4992597;28;21160;-71
2023/09/06 07:06:30;;;;;;;0.00;0.00;;;;;;;20.44;73.94;100652.41;4978973;28;20031;-75
2023/09/06 07:08:56;;;;;;;0.00;0.00;;;;;;;20.72;73.31;100658.44;4989294;28;20030;-74
2023/09/06 07:11:22;;;;;;;0.00;0.00;;;;;;;20.97;72.79;100662.34;4968276;28;20033;-73
2023/09/06 07:13:49;;;;;;;0.00;0.00;;;;;;;21.19;72.23;100666.06;4996783;28;20480;-73
2023/09/06 07:16:25;;;;;;;0.00;0.00;;;;;;;21.42;71.66;100670.22;4990777;28;20054;-74
2023/09/06 07:18:51;;;;;;;0.00;0.00;;;;;;;21.57;70.94;100665.28;4963348;28;20038;-74
2023/09/06 07:21:18;;;;;;;0.00;0.00;;;;;;;21.79;70.31;100670.53;4955098;28;20409;-74
2023/09/06 07:23:46;;;;;;;0.00;0.00;;;;;;;21.94;69.84;100668.31;4980242;28;20121;-74
2023/09/06 07:26:11;;;;;;;0.00;0.00;;;;;;;22.13;69.40;100663.09;4995800;28;20706;-74
2023/09/06 07:28:42;;;;;;;0.00;0.00;;;;;;;22.38;68.90;100677.19;4995705;28;20030;-75
2023/09/06 07:31:08;;;;;;;0.00;0.00;;;;;;;22.55;68.20;100681.03;5001175;28;20477;-74
2023/09/06 07:33:34;;;;;;;0.00;0.00;;;;;;;22.64;67.39;100662.25;5000352;28;20037;-75
2023/09/06 07:35:59;;;;;;;0.00;0.00;;;;;;;22.87;66.45;100687.75;4976508;28;20026;-74
2023/09/06 07:38:25;;;;;;;0.00;0.00;;;;;;;23.04;66.13;100695.13;4996797;28;20068;-75
2023/09/06 07:40:59;;;;;;;0.00;0.00;;;;;;;23.18;65.47;100687.28;4997150;28;20038;-74
2023/09/06 07:43:29;;;;;;;0.00;0.00;;;;;;;23.39;65.50;100685.56;4963766;28;21758;-73
2023/09/06 07:46:06;;;;;;;0.00;0.00;;;;;;;23.61;64.79;100703.84;4997707;28;20712;-74
2023/09/06 07:48:32;;;;;;;0.00;0.00;;;;;;;23.70;63.82;100690.59;4982342;28;20778;-74
2023/09/06 07:50:59;;;;;;;0.00;0.00;;;;;;;23.86;63.34;100687.97;4982967;28;20041;-74
2023/09/06 07:53:25;;;;;;;0.00;0.00;;;;;;;24.13;63.16;100691.97;4959704;28;20107;-73
2023/09/06 07:56:05;;;;;;;;;;;;;;;;;;;;;
2023/09/06 07:58:30;;;;;;;0.00;0.00;;;;;;;24.69;61.81;100684.84;4997157;28;20033;-73
2023/09/06 08:00:57;;;;;;;0.00;0.00;;;;;;;25.30;60.57;100696.88;4992742;28;20464;-74
2023/09/06 08:03:22;;;;;;;0.00;0.00;;;;;;;25.74;59.03;100700.44;4983283;28;20022;-74
2023/09/06 08:05:48;;;;;;;0.00;0.00;;;;;;;26.04;57.82;100696.34;4975247;28;20026;-75
2023/09/06 08:08:14;;;;;;;0.00;0.00;;;;;;;26.22;57.20;100697.56;4997000;28;20413;-77
2023/09/06 08:10:40;;;;;;;0.00;0.00;;;;;;;26.42;56.34;100695.59;4982155;28;20376;-75
2023/09/06 08:13:05;;;;;;;0.00;0.00;;;;;;;26.84;55.43;100682.84;4984118;28;20061;-76
2023/09/06 08:15:33;;;;;;;0.00;0.00;;;;;;;27.84;53.31;100699.84;4953851;28;20045;-74
2023/09/06 08:17:59;;;;;;;0.00;0.00;;;;;;;29.04;49.98;100697.41;4982204;28;20416;-76
2023/09/06 08:20:24;;;;;;;0.00;0.00;;;;;;;30.61;46.83;100704.66;4986563;28;20330;-75
2023/09/06 08:22:50;;;;;;;0.00;0.00;;;;;;;32.07;43.72;100716.53;4964212;28;20037;-75
2023/09/06 08:25:18;;;;;;;0.00;0.00;;;;;;;33.22;41.48;100715.28;4997418;28;20089;-73
2023/09/06 08:27:43;;;;;;;0.00;0.00;;;;;;;34.37;39.54;100699.28;4996691;28;20029;-74
2023/09/06 08:30:15;;;;;;;0.00;0.00;;;;;;;35.55;37.31;100705.31;4982843;28;20046;-73
2023/09/06 08:32:41;;;;;;;0.00;0.00;;;;;;;36.49;35.53;100714.97;4990611;28;20061;-74
2023/09/06 08:35:07;;;;;;;0.00;0.00;;;;;;;36.99;34.00;100711.06;4984807;28;20041;-74
2023/09/06 08:37:34;;;;;;;0.00;0.00;;;;;;;37.75;33.18;100705.59;4971007;28;20034;-74
2023/09/06 08:40:05;;;;;;;0.00;0.00;;;;;;;38.62;31.90;100696.19;4950599;28;20045;-76
2023/09/06 08:42:33;;;;;;;0.00;0.00;;;;;;;39.74;30.68;100699.16;4979199;28;20018;-77
2023/09/06 08:45:01;;;;;;;0.00;0.00;;;;;;;40.77;29.37;100697.84;4981689;28;20018;-74
2023/09/06 08:47:28;;;;;;;0.00;0.00;;;;;;;41.88;28.23;100700.28;4972143;28;20065;-73
2023/09/06 08:49:54;;;;;;;0.00;0.00;;;;;;;42.82;26.79;100705.44;4978551;28;20055;-74
2023/09/06 08:52:20;;;;;;;0.00;0.00;;;;;;;43.54;26.00;100693.25;4988481;28;20022;-74
2023/09/06 08:54:48;;;;;;;0.00;0.00;;;;;;;44.26;24.97;100701.81;5000794;28;20037;-74
2023/09/06 08:57:14;;;;;;;0.00;0.00;;;;;;;44.78;23.98;100694.84;4990869;28;20041;-75
2023/09/06 08:59:40;;;;;;;0.00;0.00;;;;;;;45.35;23.58;100690.69;4989223;28;20417;-74
2023/09/06 09:02:10;;;;;;;0.00;0.00;;;;;;;46.14;22.81;100694.56;4960967;28;20045;-75
2023/09/06 09:04:40;;;;;;;0.00;0.00;;;;;;;46.97;22.09;100705.84;5003533;28;20424;-75
2023/09/06 09:07:07;;;;;;;0.00;0.00;;;;;;;47.63;21.49;100692.25;4981674;28;20050;-75
2023/09/06 09:09:32;;;;;;;0.00;0.00;;;;;;;48.03;20.97;100692.38;4982257;28;20653;-74
2023/09/06 09:11:58;;;;;;;0.00;0.00;;;;;;;48.22;20.92;100690.63;4948128;28;20036;-74
2023/09/06 09:14:25;;;;;;;0.00;0.00;;;;;;;48.13;20.55;100690.06;4993732;28;20026;-74
2023/09/06 09:16:58;;;;;;;0.00;0.00;;;;;;;46.81;21.45;100679.16;5003536;28;20080;-75
2023/09/06 09:19:25;;;;;;;0.00;0.00;;;;;;;45.28;22.48;100683.25;4984093;28;20030;-74
2023/09/06 09:21:51;;;;;;;0.00;0.00;;;;;;;45.05;22.62;100687.94;5004796;28;20448;-74
2023/09/06 09:24:26;;;;;;;0.00;0.00;;;;;;;45.00;22.98;100682.06;4986875;28;20064;-74
2023/09/06 09:26:52;;;;;;;0.00;0.00;;;;;;;44.05;23.56;100679.91;4993009;28;20026;-75
2023/09/06 09:29:18;;;;;;;0.00;0.00;;;;;;;44.34;23.79;100675.47;4999730;28;20033;-75
2023/09/06 09:31:44;;;;;;;0.00;0.00;;;;;;;44.83;22.78;100676.03;4971214;28;20064;-74
2023/09/06 09:34:13;;;;;;;0.00;0.00;;;;;;;43.96;23.38;100671.31;4987789;28;20026;-74
2023/09/06 09:36:39;;;;;;;0.00;0.00;;;;;;;42.87;24.26;100678.88;4969200;28;20027;-74
2023/09/06 09:39:06;;;;;;;0.00;0.00;;;;;;;42.03;25.30;100678.28;5001825;28;20025;-75
2023/09/06 09:41:32;;;;;;;0.00;0.00;;;;;;;42.01;25.52;100658.66;4978847;28;20125;-76
2023/09/06 09:44:19;;;;;;;0.00;0.00;;;;;;;42.24;25.17;100669.97;4955540;28;20105;-75
2023/09/06 09:46:45;;;;;;;0.00;0.00;;;;;;;42.25;25.40;100654.31;4975778;28;21424;-75
2023/09/06 09:49:12;;;;;;;0.00;0.00;;;;;;;42.16;25.50;100676.00;4992855;28;20025;-72
2023/09/06 09:51:40;;;;;;;0.00;0.00;;;;;;;42.68;25.06;100672.41;4987903;28;20042;-75
2023/09/06 09:54:06;;;;;;;0.00;0.00;;;;;;;44.29;23.92;100682.69;5001483;28;20613;-74
2023/09/06 09:56:37;;;;;;;0.00;0.00;;;;;;;45.83;22.34;100678.75;4977722;28;20031;-75
2023/09/06 09:59:04;;;;;;;0.00;0.00;;;;;;;46.28;21.89;100666.88;4983011;28;20121;-74
2023/09/06 10:01:34;;;;;;;0.00;0.00;;;;;;;46.83;21.36;100658.38;5003310;28;20030;-75
2023/09/06 10:04:05;;;;;;;0.00;0.00;;;;;;;48.10;20.17;100662.16;4985850;28;20630;-76
2023/09/06 10:06:32;;;;;;;0.00;0.00;;;;;;;49.53;19.18;100673.03;4993063;28;20030;-74
2023/09/06 10:09:00;;;;;;;0.00;0.00;;;;;;;50.52;19.00;100674.25;4998310;28;20034;-73
2023/09/06 10:11:26;;;;;;;0.00;0.00;;;;;;;50.95;18.04;100659.03;4991283;28;20054;-75
2023/09/06 10:13:55;;;;;;;0.00;0.00;;;;;;;51.48;17.85;100676.16;4987023;28;20161;-73
2023/09/06 10:16:21;;;;;;;0.00;0.00;;;;;;;52.55;17.02;100675.91;4982395;28;20056;-76
2023/09/06 10:18:48;;;;;;;0.00;0.00;;;;;;;53.60;16.47;100666.13;4980313;28;20026;-75
2023/09/06 10:21:15;;;;;;;0.00;0.00;;;;;;;54.05;15.95;100665.13;4978066;28;20030;-75
2023/09/06 10:23:46;;;;;;;0.00;0.00;;;;;;;53.78;15.40;100653.53;4999323;28;20026;-73
2023/09/06 10:26:24;;;;;;;0.00;0.00;;;;;;;53.94;15.56;100653.69;4994037;28;20044;-76
2023/09/06 10:28:57;;;;;;;0.00;0.00;;;;;;;55.62;14.48;100650.38;4989850;28;20029;-76
2023/09/06 10:31:47;;;;;;;0.00;0.00;;;;;;;57.42;13.65;100650.53;4979636;28;20046;-75
2023/09/06 10:34:13;;;;;;;0.00;0.00;;;;;;;58.11;12.99;100645.59;4962979;28;20047;-76
2023/09/06 10:36:56;;;;;;;0.00;0.00;;;;;;;57.58;12.81;100645.38;4953754;28;20117;-74
2023/09/06 10:39:25;;;;;;;0.00;0.00;;;;;;;55.74;13.52;100627.38;4999452;28;20092;-73
2023/09/06 10:42:11;;;;;;;0.00;0.00;;;;;;;55.10;14.36;100643.72;4954246;28;20014;-72
2023/09/06 10:44:54;;;;;;;0.00;0.00;;;;;;;54.82;13.76;100633.59;4992995;28;20030;-76
2023/09/06 10:47:31;;;;;;;0.00;0.00;;;;;;;55.49;13.23;100647.63;4976338;28;20057;-74
2023/09/06 10:50:17;;;;;;;0.00;0.00;;;;;;;55.86;13.27;100627.81;4997840;28;20026;-74
2023/09/06 10:52:44;;;;;;;0.00;0.00;;;;;;;57.45;12.10;100619.16;4997502;28;20464;-76
2023/09/06 10:55:13;;;;;;;0.00;0.00;;;;;;;58.15;11.60;100637.16;4989338;28;20612;-76
2023/09/06 10:58:16;;;;;;;0.00;0.00;;;;;;;57.89;11.78;100632.66;4979909;28;20061;-78
2023/09/06 11:00:42;;;;;;;0.00;0.00;;;;;;;59.47;10.83;100612.97;4996229;28;20041;-76
2023/09/06 11:03:07;;;;;;;0.00;0.00;;;;;;;59.96;11.18;100634.66;4986056;28;20034;-75
2023/09/06 11:05:35;;;;;;;0.00;0.00;;;;;;;60.10;10.39;100619.47;4986027;28;20382;-77
2023/09/06 11:08:20;;;;;;;0.00;0.00;;;;;;;59.10;10.74;100601.84;4986949;28;20021;-75
2023/09/06 11:10:46;;;;;;;0.00;0.00;;;;;;;60.56;10.50;100631.25;4982351;28;20015;-76
2023/09/06 11:13:12;;;;;;;0.00;0.00;;;;;;;61.15;10.20;100609.84;4971534;28;20018;-77
2023/09/06 11:15:39;;;;;;;0.00;0.00;;;;;;;62.11;9.81;100628.69;4982480;28;20128;-77
2023/09/06 11:18:09;;;;;;;0.00;0.00;;;;;;;62.78;9.24;100599.22;4994437;28;20033;-76
2023/09/06 11:20:37;;;;;;;0.00;0.00;;;;;;;63.19;8.37;100594.50;4988430;28;20113;-76
2023/09/06 11:23:03;;;;;;;0.00;0.00;;;;;;;63.41;8.19;100613.75;4974503;28;20545;-77
2023/09/06 11:25:31;;;;;;;0.00;0.00;;;;;;;63.07;7.97;100606.31;4974953;28;20030;-77
2023/09/06 11:28:22;;;;;;;0.00;0.00;;;;;;;62.75;8.03;100606.41;4978411;28;20034;-77
2023/09/06 11:41:18;;;;;;;0.00;0.00;;;;;;;63.97;7.01;100569.81;4947487;28;20895;-78